createdAt,value
2018-08-28T00:01:01.820Z,84.87
2018-08-28T00:03:29.504Z,84.48
2018-08-28T00:05:57.285Z,83.21
2018-08-28T00:08:25.292Z,83.26
2018-08-28T00:10:52.985Z,82.73
2018-08-28T00:13:20.667Z,83.88
2018-08-28T00:15:48.747Z,84.94
2018-08-28T00:18:16.462Z,85.30
2018-08-28T00:20:44.149Z,84.54
2018-08-28T00:23:12.121Z,84.84
2018-08-28T00:25:39.801Z,83.55
2018-08-28T00:28:07.488Z,83.13
2018-08-28T00:30:35.565Z,84.42
2018-08-28T00:33:03.283Z,83.94
2018-08-28T00:35:31.126Z,83.70
2018-08-28T00:37:59.179Z,84.08
2018-08-28T00:40:26.907Z,85.46
2018-08-28T00:42:54.859Z,83.98
2018-08-28T00:45:22.854Z,85.07
2018-08-28T00:47:50.537Z,86.00
2018-08-28T00:50:18.202Z,83.25
2018-08-28T00:52:46.162Z,84.26
2018-08-28T00:55:13.835Z,83.54
2018-08-28T00:57:41.540Z,85.37
2018-08-28T01:00:09.536Z,85.94
2018-08-28T01:02:37.204Z,85.97
2018-08-28T01:05:05.040Z,86.65
2018-08-28T01:07:33.002Z,85.53
2018-08-28T01:10:00.666Z,83.82
2018-08-28T01:12:28.387Z,83.69
2018-08-28T01:14:56.369Z,86.38
2018-08-28T01:17:24.065Z,85.70
2018-08-28T01:19:51.727Z,85.05
2018-08-28T01:22:19.843Z,83.88
2018-08-28T01:24:47.540Z,86.66
2018-08-28T01:27:15.234Z,87.25
2018-08-28T01:29:43.242Z,87.22
2018-08-28T01:32:10.933Z,87.53
2018-08-28T01:34:38.639Z,87.41
2018-08-28T01:37:06.699Z,87.05
2018-08-28T01:39:34.473Z,86.97
2018-08-28T01:42:02.255Z,87.58
2018-08-28T01:44:30.375Z,87.07
2018-08-28T01:46:58.135Z,86.74
2018-08-28T01:49:25.801Z,85.84
2018-08-28T01:51:53.884Z,85.35
2018-08-28T01:54:21.572Z,85.31
2018-08-28T01:56:49.249Z,84.88
2018-08-28T01:59:17.301Z,84.79
2018-08-28T02:01:45.014Z,86.10
2018-08-28T02:04:12.694Z,86.11
2018-08-28T02:06:40.688Z,86.36
2018-08-28T02:09:08.382Z,85.71
2018-08-28T02:11:36.104Z,87.67
2018-08-28T02:14:04.117Z,87.94
2018-08-28T02:16:31.861Z,87.81
2018-08-28T02:19:00.034Z,87.89
2018-08-28T02:21:28.045Z,88.25
2018-08-28T02:23:55.780Z,88.64
2018-08-28T02:26:23.602Z,88.47
2018-08-28T02:28:51.584Z,88.91
2018-08-28T02:31:19.260Z,88.57
2018-08-28T02:33:47.078Z,88.90
2018-08-28T02:36:15.120Z,89.21
2018-08-28T02:38:42.810Z,89.34
2018-08-28T02:41:10.503Z,89.14
2018-08-28T02:43:38.570Z,88.87
2018-08-28T02:46:06.259Z,88.92
2018-08-28T02:48:33.945Z,89.30
2018-08-28T02:51:01.974Z,89.08
2018-08-28T02:53:29.662Z,88.93
2018-08-28T02:55:57.330Z,87.69
2018-08-28T02:58:25.303Z,86.84
2018-08-28T03:00:52.982Z,86.64
2018-08-28T03:03:20.686Z,87.76
2018-08-28T03:05:48.486Z,88.46
2018-08-28T03:08:16.190Z,88.87
2018-08-28T03:10:43.919Z,88.52
2018-08-28T03:13:11.720Z,89.06
2018-08-28T03:15:39.527Z,88.96
2018-08-28T03:18:07.175Z,89.09
2018-08-28T03:20:34.995Z,88.88
2018-08-28T03:23:02.997Z,88.60
2018-08-28T03:25:30.683Z,88.73
2018-08-28T03:27:58.464Z,87.87
2018-08-28T03:30:26.152Z,87.78
2018-08-28T03:32:53.829Z,88.21
2018-08-28T03:35:21.635Z,88.35
2018-08-28T03:37:49.316Z,88.81
2018-08-28T03:40:17.011Z,88.55
2018-08-28T03:42:44.815Z,88.08
2018-08-28T03:45:12.497Z,87.44
2018-08-28T03:47:40.198Z,86.69
2018-08-28T03:50:08.009Z,87.60
2018-08-28T03:52:35.683Z,87.86
2018-08-28T03:55:03.427Z,88.29
2018-08-28T03:57:31.232Z,89.08
2018-08-28T03:59:58.917Z,88.91
2018-08-28T04:02:26.654Z,89.56
2018-08-28T04:04:54.517Z,89.34
2018-08-28T04:07:22.186Z,88.85
2018-08-28T04:09:49.852Z,87.81
2018-08-28T04:12:17.625Z,88.04
2018-08-28T04:14:45.323Z,87.35
2018-08-28T04:17:13.091Z,87.91
2018-08-28T04:19:40.827Z,88.09
2018-08-28T04:22:08.535Z,87.82
2018-08-28T04:24:36.194Z,86.94
2018-08-28T04:27:04.009Z,86.70
2018-08-28T04:29:31.698Z,87.08
2018-08-28T04:31:59.360Z,87.38
2018-08-28T04:34:27.151Z,86.38
2018-08-28T04:36:54.870Z,86.19
2018-08-28T04:39:22.538Z,86.60
2018-08-28T04:41:50.366Z,85.96
2018-08-28T04:44:18.116Z,86.72
2018-08-28T04:46:45.788Z,86.21
2018-08-28T04:49:13.605Z,86.17
2018-08-28T04:51:41.347Z,87.47
2018-08-28T04:54:09.036Z,86.93
2018-08-28T04:56:36.861Z,86.67
2018-08-28T04:59:04.647Z,87.81
2018-08-28T05:01:32.326Z,88.20
2018-08-28T05:04:00.114Z,88.08
2018-08-28T05:06:27.810Z,87.35
2018-08-28T05:08:55.479Z,87.92
2018-08-28T05:11:23.271Z,87.50
2018-08-28T05:13:50.965Z,87.07
2018-08-28T05:16:18.654Z,87.54
2018-08-28T05:18:46.469Z,87.27
2018-08-28T05:21:14.179Z,87.33
2018-08-28T05:23:41.838Z,88.04
2018-08-28T05:26:09.606Z,88.01
2018-08-28T05:28:37.384Z,87.69
2018-08-28T05:31:05.294Z,86.76
2018-08-28T05:33:33.093Z,86.38
2018-08-28T05:36:00.815Z,86.21
2018-08-28T05:38:28.552Z,86.27
2018-08-28T05:40:56.377Z,86.32
2018-08-28T05:43:24.038Z,86.49
2018-08-28T05:45:51.733Z,85.86
2018-08-28T05:48:19.540Z,85.71
2018-08-28T05:50:47.220Z,85.98
2018-08-28T05:53:14.872Z,85.78
2018-08-28T05:55:42.716Z,85.83
2018-08-28T05:58:10.358Z,86.45
2018-08-28T06:00:38.082Z,86.21
2018-08-28T06:03:06.179Z,86.39
2018-08-28T06:05:33.803Z,86.29
2018-08-28T06:08:01.571Z,85.68
2018-08-28T06:10:29.577Z,85.38
2018-08-28T06:12:57.296Z,86.56
2018-08-28T06:15:25.012Z,85.61
2018-08-28T06:17:52.984Z,85.87
2018-08-28T06:20:20.677Z,85.74
2018-08-28T06:22:48.345Z,86.21
2018-08-28T06:25:16.350Z,85.85
2018-08-28T06:27:44.030Z,86.16
2018-08-28T06:30:11.752Z,85.99
2018-08-28T06:32:39.599Z,85.52
2018-08-28T06:35:07.266Z,85.61
2018-08-28T06:37:34.941Z,85.64
2018-08-28T06:40:02.856Z,85.34
2018-08-28T06:42:30.521Z,85.06
2018-08-28T06:44:58.194Z,85.19
2018-08-28T06:47:26.146Z,85.50
2018-08-28T06:49:53.836Z,85.79
2018-08-28T06:52:21.509Z,86.22
2018-08-28T06:54:49.355Z,86.01
2018-08-28T06:57:17.078Z,85.50
2018-08-28T06:59:44.772Z,85.07
2018-08-28T07:02:12.662Z,85.37
2018-08-28T07:04:40.398Z,85.14
2018-08-28T07:07:08.464Z,85.43
2018-08-28T07:09:36.340Z,86.11
2018-08-28T07:12:04.056Z,84.85
2018-08-28T07:14:31.749Z,84.53
2018-08-28T07:16:59.607Z,84.39
2018-08-28T07:19:27.263Z,85.26
2018-08-28T07:21:54.926Z,85.23
2018-08-28T07:24:22.748Z,85.00
2018-08-28T07:26:50.438Z,84.46
2018-08-28T07:29:18.104Z,84.75
2018-08-28T07:31:45.973Z,84.40
2018-08-28T07:34:13.649Z,84.53
2018-08-28T07:36:41.291Z,84.88
2018-08-28T07:39:09.149Z,84.34
2018-08-28T07:41:36.787Z,84.16
2018-08-28T07:44:04.606Z,83.75
2018-08-28T07:46:33.322Z,84.25
2018-08-28T07:49:00.969Z,84.32
2018-08-28T07:51:28.648Z,83.83
2018-08-28T07:53:56.539Z,83.49
2018-08-28T07:56:24.160Z,83.75
2018-08-28T07:58:51.845Z,83.93
2018-08-28T08:01:19.756Z,84.03
2018-08-28T08:03:47.358Z,83.93
2018-08-28T08:06:15.004Z,83.39
2018-08-28T08:08:42.833Z,83.38
2018-08-28T08:11:10.496Z,83.24
2018-08-28T08:13:38.152Z,83.13
2018-08-28T08:16:06.100Z,83.44
2018-08-28T08:18:33.785Z,83.23
2018-08-28T08:21:01.454Z,83.32
2018-08-28T08:23:29.302Z,83.17
2018-08-28T08:25:56.986Z,83.13
2018-08-28T08:28:24.737Z,83.35
2018-08-28T08:30:52.468Z,83.43
2018-08-28T08:33:20.126Z,83.31
2018-08-28T08:35:47.774Z,83.07
2018-08-28T08:38:15.538Z,83.28
2018-08-28T08:40:43.196Z,83.25
2018-08-28T08:43:10.865Z,83.11
2018-08-28T08:45:38.626Z,83.03
2018-08-28T08:48:06.306Z,82.94
2018-08-28T08:50:34.029Z,82.87
2018-08-28T08:53:01.820Z,82.68
2018-08-28T08:55:29.499Z,82.78
2018-08-28T08:57:57.170Z,82.81
2018-08-28T09:00:24.953Z,82.69
2018-08-28T09:02:52.607Z,82.34
2018-08-28T09:05:20.732Z,82.30
2018-08-28T09:07:48.502Z,82.37
2018-08-28T09:10:16.208Z,82.41
2018-08-28T09:12:44.047Z,82.23
2018-08-28T09:15:11.710Z,82.46
2018-08-28T09:17:39.389Z,82.24
2018-08-28T09:20:07.370Z,82.37
2018-08-28T09:22:35.065Z,82.33
2018-08-28T09:25:02.837Z,81.92
2018-08-28T09:27:30.681Z,81.62
2018-08-28T09:29:58.377Z,81.69
2018-08-28T09:32:26.172Z,81.76
2018-08-28T09:34:53.980Z,81.52
2018-08-28T09:37:21.669Z,81.54
2018-08-28T09:39:49.350Z,81.44
2018-08-28T09:42:17.197Z,81.66
2018-08-28T09:44:44.874Z,81.78
2018-08-28T09:47:12.562Z,81.68
2018-08-28T09:49:40.481Z,81.48
2018-08-28T09:52:08.158Z,81.24
2018-08-28T09:54:36.775Z,81.21
2018-08-28T09:57:04.685Z,81.16
2018-08-28T09:59:32.373Z,80.95
2018-08-28T10:02:00.035Z,81.26
2018-08-28T10:04:28.022Z,81.36
2018-08-28T10:06:55.742Z,80.58
2018-08-28T10:09:23.427Z,80.85
2018-08-28T10:11:51.404Z,80.84
2018-08-28T10:14:19.088Z,80.83
2018-08-28T10:16:46.757Z,81.03
2018-08-28T10:19:14.710Z,81.03
2018-08-28T10:21:42.355Z,80.97
2018-08-28T10:24:10.026Z,80.82
2018-08-28T10:26:37.859Z,80.79
2018-08-28T10:29:05.632Z,80.75
2018-08-28T10:31:33.317Z,80.54
2018-08-28T10:34:01.218Z,79.81
2018-08-28T10:36:28.861Z,79.97
2018-08-28T10:38:56.522Z,80.01
2018-08-28T10:41:24.358Z,79.98
2018-08-28T10:43:52.017Z,79.85
2018-08-28T10:46:19.752Z,77.99
2018-08-28T10:48:47.643Z,78.95
2018-08-28T10:51:16.302Z,78.53
2018-08-28T10:53:43.956Z,78.53
2018-08-28T10:56:11.801Z,77.61
2018-08-28T10:58:39.499Z,73.88
2018-08-28T11:01:07.573Z,72.84
2018-08-28T11:03:35.385Z,76.84
2018-08-28T11:06:03.054Z,76.17
2018-08-28T11:08:30.737Z,75.41
2018-08-28T11:10:58.566Z,74.17
2018-08-28T11:13:26.220Z,76.17
2018-08-28T11:15:53.871Z,73.97
2018-08-28T11:18:21.694Z,75.31
2018-08-28T11:20:49.417Z,75.80
2018-08-28T11:23:17.076Z,74.97
2018-08-28T11:25:44.890Z,74.47
2018-08-28T11:28:12.588Z,76.01
2018-08-28T11:30:40.232Z,75.67
2018-08-28T11:33:08.083Z,75.28
2018-08-28T11:35:35.788Z,75.46
2018-08-28T11:38:03.444Z,75.74
2018-08-28T11:40:31.325Z,75.65
2018-08-28T11:42:58.974Z,74.31
2018-08-28T11:45:26.615Z,74.43
2018-08-28T11:47:54.435Z,74.73
2018-08-28T11:50:22.116Z,72.98
2018-08-28T11:52:49.758Z,73.68
2018-08-28T11:55:17.578Z,74.41
2018-08-28T11:57:45.240Z,74.63
2018-08-28T12:00:13.666Z,73.74
2018-08-28T12:02:41.516Z,73.34
2018-08-28T12:05:09.289Z,72.72
2018-08-28T12:07:36.886Z,73.55
2018-08-28T12:10:04.901Z,73.99
2018-08-28T12:12:32.545Z,73.91
2018-08-28T12:15:00.221Z,72.69
2018-08-28T12:17:28.066Z,73.86
2018-08-28T12:19:55.791Z,72.86
2018-08-28T12:22:23.485Z,72.52
2018-08-28T12:24:51.325Z,72.46
2018-08-28T12:27:19.022Z,73.24
2018-08-28T12:29:46.873Z,73.50
2018-08-28T12:32:14.632Z,72.64
2018-08-28T12:34:42.275Z,72.79
2018-08-28T12:37:10.002Z,73.13
2018-08-28T12:39:37.801Z,73.02
2018-08-28T12:42:05.475Z,73.66
2018-08-28T12:44:33.150Z,72.63
2018-08-28T12:47:00.930Z,73.18
2018-08-28T12:49:28.586Z,72.59
2018-08-28T12:51:56.265Z,73.22
2018-08-28T12:54:24.077Z,73.05
2018-08-28T12:56:51.737Z,72.90
2018-08-28T12:59:19.394Z,73.54
2018-08-28T13:01:47.213Z,73.18
2018-08-28T13:04:14.888Z,73.42
2018-08-28T13:06:42.588Z,72.87
2018-08-28T13:09:10.472Z,73.45
2018-08-28T13:11:39.194Z,73.41
2018-08-28T13:14:06.890Z,73.29
2018-08-28T13:16:34.713Z,73.38
2018-08-28T13:19:02.694Z,73.18
2018-08-28T13:21:30.372Z,73.39
2018-08-28T13:23:58.221Z,73.41
2018-08-28T13:26:25.925Z,73.47
2018-08-28T13:28:53.644Z,73.25
2018-08-28T13:31:21.641Z,73.29
2018-08-28T13:33:49.393Z,73.24
2018-08-28T13:36:17.116Z,73.59
2018-08-28T13:38:44.936Z,73.37
2018-08-28T13:41:12.610Z,73.62
2018-08-28T13:43:40.316Z,73.30
2018-08-28T13:46:08.136Z,73.03
2018-08-28T13:48:35.884Z,73.43
2018-08-28T13:51:03.574Z,73.42
2018-08-28T13:53:31.354Z,73.42
2018-08-28T13:55:59.029Z,73.65
2018-08-28T13:58:26.764Z,73.82
2018-08-28T14:00:54.624Z,73.80
2018-08-28T14:03:22.324Z,73.78
2018-08-28T14:05:49.994Z,73.73
2018-08-28T14:08:17.777Z,74.06
2018-08-28T14:10:45.445Z,73.91
2018-08-28T14:13:13.268Z,74.12
2018-08-28T14:15:40.929Z,73.92
2018-08-28T14:18:08.632Z,73.80
2018-08-28T14:20:36.328Z,73.73
2018-08-28T14:23:04.141Z,73.76
2018-08-28T14:25:31.820Z,73.86
2018-08-28T14:27:59.547Z,73.73
2018-08-28T14:30:27.352Z,73.37
2018-08-28T14:32:55.024Z,73.78
2018-08-28T14:35:22.725Z,73.93
2018-08-28T14:37:50.522Z,73.55
2018-08-28T14:40:18.186Z,73.55
2018-08-28T14:42:45.891Z,73.43
2018-08-28T14:45:13.690Z,73.30
2018-08-28T14:47:41.377Z,73.10
2018-08-28T14:50:09.170Z,73.35
2018-08-28T14:52:36.953Z,73.20
2018-08-28T14:55:04.724Z,73.35
2018-08-28T14:57:32.429Z,73.22
2018-08-28T15:00:00.233Z,73.38
2018-08-28T15:02:27.900Z,73.47
2018-08-28T15:04:55.596Z,73.18
2018-08-28T15:07:23.392Z,73.60
2018-08-28T15:09:51.078Z,73.60
2018-08-28T15:12:18.810Z,73.45
2018-08-28T15:14:46.610Z,73.60
2018-08-28T15:17:14.373Z,73.80
2018-08-28T15:19:42.059Z,73.69
2018-08-28T15:22:09.849Z,73.69
2018-08-28T15:24:37.531Z,73.67
2018-08-28T15:27:05.338Z,73.79
2018-08-28T15:29:33.127Z,74.18
2018-08-28T15:32:00.836Z,74.18
2018-08-28T15:34:28.536Z,74.25
2018-08-28T15:36:56.340Z,74.83
2018-08-28T15:39:24.010Z,74.89
2018-08-28T15:41:51.704Z,74.76
2018-08-28T15:44:19.685Z,74.82
2018-08-28T15:46:47.394Z,75.26
2018-08-28T15:49:15.071Z,75.23
2018-08-28T15:51:43.133Z,75.43
2018-08-28T15:54:10.772Z,75.22
2018-08-28T15:56:38.465Z,75.47
2018-08-28T15:59:06.548Z,75.74
2018-08-28T16:01:34.237Z,75.73
2018-08-28T16:04:01.921Z,75.71
2018-08-28T16:06:30.008Z,76.60
2018-08-28T16:08:57.720Z,76.07
2018-08-28T16:11:25.413Z,76.15
2018-08-28T16:13:53.211Z,76.65
2018-08-28T16:16:20.862Z,76.48
2018-08-28T16:18:48.565Z,77.58
2018-08-28T16:21:16.374Z,77.62
2018-08-28T16:23:45.897Z,77.68
2018-08-28T16:26:13.562Z,77.20
2018-08-28T16:28:41.428Z,76.97
2018-08-28T16:31:09.128Z,77.93
2018-08-28T16:33:36.790Z,77.88
2018-08-28T16:36:04.582Z,78.45
2018-08-28T16:38:32.249Z,79.12
2018-08-28T16:40:59.975Z,79.23
2018-08-28T16:43:27.882Z,79.08
2018-08-28T16:45:55.610Z,78.87
2018-08-28T16:48:23.370Z,79.61
2018-08-28T16:50:51.126Z,79.05
2018-08-28T16:53:18.835Z,80.79
2018-08-28T16:55:46.584Z,79.34
2018-08-28T16:58:14.406Z,80.01
2018-08-28T17:00:42.131Z,80.46
2018-08-28T17:03:09.807Z,81.14
2018-08-28T17:05:37.631Z,79.70
2018-08-28T17:08:05.314Z,80.49
2018-08-28T17:10:33.090Z,79.88
2018-08-28T17:13:00.946Z,80.85
2018-08-28T17:15:28.649Z,80.11
2018-08-28T17:17:56.872Z,80.68
2018-08-28T17:20:24.783Z,80.73
2018-08-28T17:22:52.449Z,80.67
2018-08-28T17:25:20.342Z,80.58
2018-08-28T17:27:48.197Z,80.03
2018-08-28T17:30:15.961Z,80.05
2018-08-28T17:32:43.656Z,80.08
2018-08-28T17:35:11.530Z,80.63
2018-08-28T17:37:39.222Z,81.59
2018-08-28T17:40:06.962Z,80.85
2018-08-28T17:42:34.866Z,81.22
2018-08-28T17:45:02.575Z,81.80
2018-08-28T17:47:30.250Z,80.84
2018-08-28T17:49:58.094Z,80.79
2018-08-28T17:52:25.830Z,80.46
2018-08-28T17:54:53.537Z,80.46
2018-08-28T17:57:21.351Z,81.00
2018-08-28T17:59:49.055Z,80.66
2018-08-28T18:02:16.820Z,80.85
2018-08-28T18:04:44.649Z,80.83
2018-08-28T18:07:12.367Z,80.96
2018-08-28T18:09:40.075Z,80.64
2018-08-28T18:12:07.901Z,81.67
2018-08-28T18:14:35.600Z,81.68
2018-08-28T18:17:03.305Z,81.56
2018-08-28T18:19:31.110Z,81.01
2018-08-28T18:21:58.830Z,81.06
2018-08-28T18:24:26.512Z,81.31
2018-08-28T18:26:54.352Z,81.41
2018-08-28T18:29:22.038Z,81.41
2018-08-28T18:31:49.726Z,81.26
2018-08-28T18:34:17.559Z,80.89
2018-08-28T18:36:45.340Z,81.04
2018-08-28T18:39:13.068Z,81.10
2018-08-28T18:41:40.936Z,81.14
2018-08-28T18:44:08.602Z,81.32
2018-08-28T18:46:36.332Z,81.66
2018-08-28T18:49:04.605Z,82.00
2018-08-28T18:51:32.317Z,81.97
2018-08-28T18:54:00.025Z,81.78
2018-08-28T18:56:27.878Z,82.88
2018-08-28T18:58:55.586Z,82.31
2018-08-28T19:01:23.289Z,83.89
2018-08-28T19:03:51.098Z,85.27
2018-08-28T19:06:18.826Z,84.88
2018-08-28T19:08:46.585Z,83.23
2018-08-28T19:11:14.435Z,82.97
2018-08-28T19:13:42.205Z,83.70
2018-08-28T19:16:09.913Z,83.63
2018-08-28T19:18:37.742Z,83.87
2018-08-28T19:21:05.495Z,84.05
2018-08-28T19:23:33.184Z,83.73
2018-08-28T19:26:01.036Z,83.92
2018-08-28T19:28:28.748Z,84.18
2018-08-28T19:30:56.440Z,86.30
2018-08-28T19:33:24.348Z,86.78
2018-08-28T19:35:52.060Z,86.88
2018-08-28T19:38:19.752Z,84.89
2018-08-28T19:40:47.625Z,85.90
2018-08-28T19:43:15.376Z,87.37
2018-08-28T19:45:43.520Z,85.21
2018-08-28T19:48:11.358Z,86.04
2018-08-28T19:50:39.075Z,86.61
2018-08-28T19:53:06.763Z,86.17
2018-08-28T19:55:34.606Z,85.07
2018-08-28T19:58:02.301Z,84.79
2018-08-28T20:00:30.019Z,84.47
2018-08-28T20:02:57.882Z,85.27
2018-08-28T20:05:25.561Z,85.20
2018-08-28T20:07:53.246Z,84.76
2018-08-28T20:10:21.106Z,86.08
2018-08-28T20:12:48.795Z,85.22
2018-08-28T20:15:16.478Z,85.70
2018-08-28T20:17:44.389Z,85.28
2018-08-28T20:20:12.161Z,85.87
2018-08-28T20:22:39.853Z,86.01
2018-08-28T20:25:07.770Z,85.44
2018-08-28T20:27:35.482Z,85.02
2018-08-28T20:30:03.274Z,84.56
2018-08-28T20:32:31.142Z,84.60
2018-08-28T20:34:58.965Z,84.74
2018-08-28T20:37:26.752Z,84.84
2018-08-28T20:39:54.733Z,84.51
2018-08-28T20:42:22.402Z,85.15
2018-08-28T20:44:50.246Z,85.10
2018-08-28T20:47:18.082Z,85.75
2018-08-28T20:49:45.782Z,86.41
2018-08-28T20:52:13.453Z,86.44
2018-08-28T20:54:41.284Z,86.85
2018-08-28T20:57:08.949Z,87.50
2018-08-28T20:59:36.627Z,87.31
2018-08-28T21:02:04.638Z,88.05
2018-08-28T21:04:32.274Z,87.44
2018-08-28T21:07:00.000Z,87.99
2018-08-28T21:09:27.698Z,88.27
2018-08-28T21:11:55.343Z,87.82
2018-08-28T21:14:22.955Z,87.25
2018-08-28T21:16:50.694Z,86.41
2018-08-28T21:19:18.711Z,87.12
2018-08-28T21:21:46.333Z,86.87
2018-08-28T21:24:14.100Z,85.74
2018-08-28T21:26:41.742Z,86.22
2018-08-28T21:29:09.385Z,85.93
2018-08-28T21:31:37.121Z,86.15
2018-08-28T21:34:04.847Z,85.65
2018-08-28T21:36:32.503Z,85.71
2018-08-28T21:39:00.231Z,86.18
2018-08-28T21:41:27.919Z,87.28
2018-08-28T21:43:55.543Z,86.71
2018-08-28T21:46:23.275Z,86.96
2018-08-28T21:48:50.921Z,86.59
2018-08-28T21:51:18.539Z,87.23
2018-08-28T21:53:46.308Z,86.92
2018-08-28T21:56:13.929Z,87.52
2018-08-28T21:58:41.574Z,86.80
2018-08-28T22:01:11.916Z,86.19
2018-08-28T22:03:40.727Z,86.66
2018-08-28T22:06:14.005Z,87.54
2018-08-28T22:08:41.726Z,86.66
2018-08-28T22:11:09.355Z,87.04
2018-08-28T22:13:37.684Z,87.22
2018-08-28T22:16:05.347Z,87.49
2018-08-28T22:18:32.992Z,87.94
2018-08-28T22:21:00.724Z,87.45
2018-08-28T22:23:28.411Z,87.09
2018-08-28T22:25:56.054Z,87.32
2018-08-28T22:28:23.786Z,87.44
2018-08-28T22:30:51.427Z,87.94
2018-08-28T22:33:19.059Z,87.98
2018-08-28T22:35:46.814Z,87.73
2018-08-28T22:38:14.491Z,87.51
2018-08-28T22:40:42.131Z,87.83
2018-08-28T22:43:09.882Z,87.47
2018-08-28T22:45:37.503Z,87.35
2018-08-28T22:48:05.487Z,87.76
2018-08-28T22:50:33.233Z,87.82
2018-08-28T22:53:00.863Z,87.37
2018-08-28T22:55:28.498Z,87.08
2018-08-28T22:57:56.283Z,87.19
2018-08-28T23:00:24.021Z,87.62
2018-08-28T23:02:53.517Z,87.80
2018-08-28T23:05:21.555Z,87.59
2018-08-28T23:07:49.502Z,86.89
2018-08-28T23:10:17.262Z,87.23
2018-08-28T23:12:45.025Z,87.31
2018-08-28T23:15:12.841Z,87.70
2018-08-28T23:17:40.607Z,87.35
2018-08-28T23:20:08.352Z,87.77
2018-08-28T23:22:36.088Z,87.57
2018-08-28T23:25:03.869Z,87.66
2018-08-28T23:27:31.762Z,88.37
2018-08-28T23:29:59.493Z,88.13
2018-08-28T23:32:27.251Z,87.40
2018-08-28T23:34:54.964Z,87.56
2018-08-28T23:37:22.682Z,88.43
2018-08-28T23:39:50.419Z,87.41
2018-08-28T23:42:18.170Z,87.73
2018-08-28T23:44:45.913Z,87.90
2018-08-28T23:47:13.652Z,88.18
2018-08-28T23:49:41.389Z,87.80
2018-08-28T23:52:09.116Z,88.29
2018-08-28T23:54:36.839Z,88.48
2018-08-28T23:57:04.598Z,88.46
2018-08-28T23:59:32.350Z,87.68
